sensor_id;sensor_type;location;lat;lon;timestamp;P1;durP1;ratioP1;P2;durP2;ratioP2
22314;SDS011;11325;55.686;37.566;2023-07-08T00:01:07;20.90;;;13.13;;
22314;SDS011;11325;55.686;37.566;2023-07-08T00:03:34;21.45;;;14.25;;
22314;SDS011;11325;55.686;37.566;2023-07-08T00:06:20;21.73;;;12.30;;
22314;SDS011;11325;55.686;37.566;2023-07-08T00:08:58;20.92;;;12.50;;
22314;SDS011;11325;55.686;37.566;2023-07-08T00:11:28;25.15;;;12.98;;
22314;SDS011;11325;55.686;37.566;2023-07-08T00:13:57;19.12;;;12.70;;
22314;SDS011;11325;55.686;37.566;2023-07-08T00:16:25;20.30;;;13.28;;
22314;SDS011;11325;55.686;37.566;2023-07-08T00:19:07;22.93;;;12.43;;
22314;SDS011;11325;55.686;37.566;2023-07-08T00:21:34;19.70;;;12.58;;
22314;SDS011;11325;55.686;37.566;2023-07-08T00:24:13;17.65;;;12.28;;
22314;SDS011;11325;55.686;37.566;2023-07-08T00:26:52;21.82;;;13.60;;
22314;SDS011;11325;55.686;37.566;2023-07-08T00:29:21;17.90;;;13.00;;
22314;SDS011;11325;55.686;37.566;2023-07-08T00:31:49;18.05;;;12.68;;
22314;SDS011;11325;55.686;37.566;2023-07-08T00:34:18;20.45;;;12.88;;
22314;SDS011;11325;55.686;37.566;2023-07-08T00:36:56;19.62;;;13.30;;
22314;SDS011;11325;55.686;37.566;2023-07-08T00:39:25;15.00;;;12.40;;
22314;SDS011;11325;55.686;37.566;2023-07-08T00:41:53;18.90;;;12.45;;
22314;SDS011;11325;55.686;37.566;2023-07-08T00:44:22;18.82;;;12.33;;
22314;SDS011;11325;55.686;37.566;2023-07-08T00:47:08;19.48;;;12.15;;
22314;SDS011;11325;55.686;37.566;2023-07-08T00:49:55;22.50;;;12.58;;
22314;SDS011;11325;55.686;37.566;2023-07-08T00:52:33;22.70;;;12.43;;
22314;SDS011;11325;55.686;37.566;2023-07-08T00:55:04;24.15;;;13.15;;
22314;SDS011;11325;55.686;37.566;2023-07-08T00:57:34;21.15;;;11.57;;
22314;SDS011;11325;55.686;37.566;2023-07-08T01:00:06;22.75;;;12.80;;
22314;SDS011;11325;55.686;37.566;2023-07-08T01:02:39;19.77;;;11.80;;
22314;SDS011;11325;55.686;37.566;2023-07-08T01:05:08;18.95;;;12.40;;
22314;SDS011;11325;55.686;37.566;2023-07-08T01:07:38;19.90;;;11.80;;
22314;SDS011;11325;55.686;37.566;2023-07-08T01:10:09;16.52;;;11.15;;
22314;SDS011;11325;55.686;37.566;2023-07-08T01:12:51;18.67;;;11.48;;
22314;SDS011;11325;55.686;37.566;2023-07-08T01:15:31;17.15;;;11.45;;
22314;SDS011;11325;55.686;37.566;2023-07-08T01:18:00;17.62;;;11.70;;
22314;SDS011;11325;55.686;37.566;2023-07-08T01:20:39;18.32;;;11.78;;
22314;SDS011;11325;55.686;37.566;2023-07-08T01:23:18;15.32;;;11.22;;
22314;SDS011;11325;55.686;37.566;2023-07-08T01:25:58;22.82;;;12.18;;
22314;SDS011;11325;55.686;37.566;2023-07-08T01:28:27;17.82;;;11.45;;
22314;SDS011;11325;55.686;37.566;2023-07-08T01:30:57;17.50;;;12.13;;
22314;SDS011;11325;55.686;37.566;2023-07-08T01:33:26;19.65;;;12.23;;
22314;SDS011;11325;55.686;37.566;2023-07-08T01:35:54;17.05;;;11.57;;
22314;SDS011;11325;55.686;37.566;2023-07-08T01:38:24;15.63;;;11.03;;
22314;SDS011;11325;55.686;37.566;2023-07-08T01:40:55;17.50;;;12.05;;
22314;SDS011;11325;55.686;37.566;2023-07-08T01:43:33;24.07;;;12.15;;
22314;SDS011;11325;55.686;37.566;2023-07-08T01:46:02;18.50;;;11.78;;
22314;SDS011;11325;55.686;37.566;2023-07-08T01:48:33;24.87;;;12.55;;
22314;SDS011;11325;55.686;37.566;2023-07-08T01:51:11;19.48;;;12.00;;
22314;SDS011;11325;55.686;37.566;2023-07-08T01:53:41;18.70;;;12.33;;
22314;SDS011;11325;55.686;37.566;2023-07-08T01:56:19;16.42;;;10.95;;
22314;SDS011;11325;55.686;37.566;2023-07-08T01:58:57;17.75;;;11.63;;
22314;SDS011;11325;55.686;37.566;2023-07-08T02:01:26;15.93;;;11.50;;
22314;SDS011;11325;55.686;37.566;2023-07-08T02:03:55;17.32;;;11.68;;
22314;SDS011;11325;55.686;37.566;2023-07-08T02:06:23;18.45;;;11.18;;
22314;SDS011;11325;55.686;37.566;2023-07-08T02:09:02;17.35;;;11.85;;
22314;SDS011;11325;55.686;37.566;2023-07-08T02:11:33;16.15;;;11.70;;
22314;SDS011;11325;55.686;37.566;2023-07-08T02:14:01;19.62;;;11.97;;
22314;SDS011;11325;55.686;37.566;2023-07-08T02:16:31;20.20;;;11.78;;
22314;SDS011;11325;55.686;37.566;2023-07-08T02:19:00;19.07;;;12.40;;
22314;SDS011;11325;55.686;37.566;2023-07-08T02:21:28;20.57;;;12.33;;
22314;SDS011;11325;55.686;37.566;2023-07-08T02:24:00;19.75;;;12.50;;
22314;SDS011;11325;55.686;37.566;2023-07-08T02:26:29;22.95;;;13.55;;
22314;SDS011;11325;55.686;37.566;2023-07-08T02:28:59;17.73;;;11.78;;
22314;SDS011;11325;55.686;37.566;2023-07-08T02:31:39;18.40;;;13.18;;
22314;SDS011;11325;55.686;37.566;2023-07-08T02:34:17;19.98;;;12.93;;
22314;SDS011;11325;55.686;37.566;2023-07-08T02:36:46;23.95;;;14.18;;
22314;SDS011;11325;55.686;37.566;2023-07-08T02:39:24;20.50;;;13.90;;
22314;SDS011;11325;55.686;37.566;2023-07-08T02:42:03;19.98;;;12.73;;
22314;SDS011;11325;55.686;37.566;2023-07-08T02:44:42;21.68;;;14.55;;
22314;SDS011;11325;55.686;37.566;2023-07-08T02:47:10;25.05;;;14.28;;
22314;SDS011;11325;55.686;37.566;2023-07-08T02:49:39;19.87;;;13.80;;
22314;SDS011;11325;55.686;37.566;2023-07-08T02:52:18;20.75;;;14.28;;
22314;SDS011;11325;55.686;37.566;2023-07-08T02:54:56;22.65;;;13.48;;
22314;SDS011;11325;55.686;37.566;2023-07-08T02:57:25;23.20;;;14.03;;
22314;SDS011;11325;55.686;37.566;2023-07-08T02:59:54;22.82;;;14.35;;
22314;SDS011;11325;55.686;37.566;2023-07-08T03:02:38;23.98;;;14.03;;
22314;SDS011;11325;55.686;37.566;2023-07-08T03:05:07;23.50;;;14.05;;
22314;SDS011;11325;55.686;37.566;2023-07-08T03:07:36;21.35;;;13.58;;
22314;SDS011;11325;55.686;37.566;2023-07-08T03:10:05;25.43;;;15.03;;
22314;SDS011;11325;55.686;37.566;2023-07-08T03:12:44;22.73;;;14.18;;
22314;SDS011;11325;55.686;37.566;2023-07-08T03:15:23;24.98;;;14.78;;
22314;SDS011;11325;55.686;37.566;2023-07-08T03:17:52;26.85;;;13.80;;
22314;SDS011;11325;55.686;37.566;2023-07-08T03:20:32;20.15;;;13.65;;
22314;SDS011;11325;55.686;37.566;2023-07-08T03:23:03;20.60;;;13.83;;
22314;SDS011;11325;55.686;37.566;2023-07-08T03:25:31;24.95;;;14.63;;
22314;SDS011;11325;55.686;37.566;2023-07-08T03:28:09;22.27;;;13.30;;
22314;SDS011;11325;55.686;37.566;2023-07-08T03:30:52;25.80;;;15.28;;
22314;SDS011;11325;55.686;37.566;2023-07-08T03:33:31;23.02;;;14.50;;
22314;SDS011;11325;55.686;37.566;2023-07-08T03:36:13;22.62;;;14.65;;
22314;SDS011;11325;55.686;37.566;2023-07-08T03:38:53;23.70;;;14.95;;
22314;SDS011;11325;55.686;37.566;2023-07-08T03:41:33;20.10;;;13.95;;
22314;SDS011;11325;55.686;37.566;2023-07-08T03:44:01;23.90;;;13.78;;
22314;SDS011;11325;55.686;37.566;2023-07-08T03:46:30;22.27;;;13.15;;
22314;SDS011;11325;55.686;37.566;2023-07-08T03:49:14;24.07;;;14.00;;
22314;SDS011;11325;55.686;37.566;2023-07-08T03:51:43;21.80;;;13.30;;
22314;SDS011;11325;55.686;37.566;2023-07-08T03:54:23;22.95;;;14.70;;
22314;SDS011;11325;55.686;37.566;2023-07-08T03:56:52;19.25;;;13.48;;
22314;SDS011;11325;55.686;37.566;2023-07-08T03:59:21;22.45;;;14.50;;
22314;SDS011;11325;55.686;37.566;2023-07-08T04:02:00;27.58;;;15.20;;
22314;SDS011;11325;55.686;37.566;2023-07-08T04:04:40;23.02;;;13.80;;
22314;SDS011;11325;55.686;37.566;2023-07-08T04:07:19;21.65;;;14.78;;
22314;SDS011;11325;55.686;37.566;2023-07-08T04:09:48;24.95;;;15.38;;
22314;SDS011;11325;55.686;37.566;2023-07-08T04:12:28;23.60;;;14.65;;
22314;SDS011;11325;55.686;37.566;2023-07-08T04:15:12;19.48;;;13.15;;
22314;SDS011;11325;55.686;37.566;2023-07-08T04:17:43;22.42;;;13.30;;
22314;SDS011;11325;55.686;37.566;2023-07-08T04:20:16;19.60;;;12.95;;
22314;SDS011;11325;55.686;37.566;2023-07-08T04:22:46;21.27;;;12.68;;
22314;SDS011;11325;55.686;37.566;2023-07-08T04:25:15;24.30;;;13.22;;
22314;SDS011;11325;55.686;37.566;2023-07-08T04:27:45;19.70;;;13.25;;
22314;SDS011;11325;55.686;37.566;2023-07-08T04:30:23;22.17;;;13.90;;
22314;SDS011;11325;55.686;37.566;2023-07-08T04:32:52;19.70;;;13.80;;
22314;SDS011;11325;55.686;37.566;2023-07-08T04:35:31;21.57;;;12.85;;
22314;SDS011;11325;55.686;37.566;2023-07-08T04:38:15;19.62;;;11.10;;
22314;SDS011;11325;55.686;37.566;2023-07-08T04:40:43;18.30;;;11.97;;
22314;SDS011;11325;55.686;37.566;2023-07-08T04:43:12;21.17;;;11.85;;
22314;SDS011;11325;55.686;37.566;2023-07-08T04:45:43;16.25;;;11.57;;
22314;SDS011;11325;55.686;37.566;2023-07-08T04:48:13;20.75;;;12.13;;
22314;SDS011;11325;55.686;37.566;2023-07-08T04:50:42;17.40;;;12.58;;
22314;SDS011;11325;55.686;37.566;2023-07-08T04:53:11;18.30;;;11.22;;
22314;SDS011;11325;55.686;37.566;2023-07-08T04:55:51;16.90;;;11.10;;
22314;SDS011;11325;55.686;37.566;2023-07-08T04:58:21;15.53;;;10.68;;
22314;SDS011;11325;55.686;37.566;2023-07-08T05:01:00;19.50;;;11.08;;
22314;SDS011;11325;55.686;37.566;2023-07-08T05:03:28;14.13;;;10.43;;
22314;SDS011;11325;55.686;37.566;2023-07-08T05:05:57;15.08;;;9.70;;
22314;SDS011;11325;55.686;37.566;2023-07-08T05:08:25;19.70;;;10.72;;
22314;SDS011;11325;55.686;37.566;2023-07-08T05:10:55;18.05;;;11.28;;
22314;SDS011;11325;55.686;37.566;2023-07-08T05:13:24;17.65;;;10.72;;
22314;SDS011;11325;55.686;37.566;2023-07-08T05:15:52;16.40;;;10.90;;
22314;SDS011;11325;55.686;37.566;2023-07-08T05:18:31;14.55;;;10.15;;
22314;SDS011;11325;55.686;37.566;2023-07-08T05:21:10;14.58;;;10.05;;
22314;SDS011;11325;55.686;37.566;2023-07-08T05:23:49;17.52;;;10.25;;
22314;SDS011;11325;55.686;37.566;2023-07-08T05:26:33;14.70;;;10.63;;
22314;SDS011;11325;55.686;37.566;2023-07-08T05:29:02;16.32;;;10.65;;
22314;SDS011;11325;55.686;37.566;2023-07-08T05:31:32;20.25;;;10.30;;
22314;SDS011;11325;55.686;37.566;2023-07-08T05:34:12;17.70;;;10.95;;
22314;SDS011;11325;55.686;37.566;2023-07-08T05:36:41;14.13;;;10.10;;
22314;SDS011;11325;55.686;37.566;2023-07-08T05:39:20;19.67;;;10.40;;
22314;SDS011;11325;55.686;37.566;2023-07-08T05:41:49;17.40;;;10.25;;
22314;SDS011;11325;55.686;37.566;2023-07-08T05:44:27;16.52;;;10.20;;
22314;SDS011;11325;55.686;37.566;2023-07-08T05:46:56;15.35;;;10.15;;
22314;SDS011;11325;55.686;37.566;2023-07-08T05:49:25;14.05;;;9.48;;
22314;SDS011;11325;55.686;37.566;2023-07-08T05:52:04;15.80;;;10.58;;
22314;SDS011;11325;55.686;37.566;2023-07-08T05:54:44;17.52;;;10.28;;
22314;SDS011;11325;55.686;37.566;2023-07-08T05:57:13;16.00;;;10.18;;
22314;SDS011;11325;55.686;37.566;2023-07-08T05:59:51;14.28;;;9.93;;
22314;SDS011;11325;55.686;37.566;2023-07-08T06:02:20;17.80;;;9.95;;
22314;SDS011;11325;55.686;37.566;2023-07-08T06:04:50;12.60;;;9.03;;
22314;SDS011;11325;55.686;37.566;2023-07-08T06:07:32;14.15;;;10.10;;
22314;SDS011;11325;55.686;37.566;2023-07-08T06:10:00;18.45;;;9.20;;
22314;SDS011;11325;55.686;37.566;2023-07-08T06:12:30;13.50;;;8.43;;
22314;SDS011;11325;55.686;37.566;2023-07-08T06:15:09;12.13;;;8.75;;
22314;SDS011;11325;55.686;37.566;2023-07-08T06:17:39;15.32;;;8.50;;
22314;SDS011;11325;55.686;37.566;2023-07-08T06:20:25;17.82;;;10.75;;
22314;SDS011;11325;55.686;37.566;2023-07-08T06:22:55;12.30;;;8.00;;
22314;SDS011;11325;55.686;37.566;2023-07-08T06:25:24;11.95;;;7.85;;
22314;SDS011;11325;55.686;37.566;2023-07-08T06:27:53;10.95;;;7.37;;
22314;SDS011;11325;55.686;37.566;2023-07-08T06:30:21;10.20;;;7.53;;
22314;SDS011;11325;55.686;37.566;2023-07-08T06:32:50;13.60;;;8.70;;
22314;SDS011;11325;55.686;37.566;2023-07-08T06:35:19;11.60;;;8.35;;
22314;SDS011;11325;55.686;37.566;2023-07-08T06:37:47;14.05;;;8.28;;
22314;SDS011;11325;55.686;37.566;2023-07-08T06:40:16;16.87;;;8.83;;
22314;SDS011;11325;55.686;37.566;2023-07-08T06:42:57;15.30;;;9.18;;
22314;SDS011;11325;55.686;37.566;2023-07-08T06:45:25;15.23;;;9.00;;
22314;SDS011;11325;55.686;37.566;2023-07-08T06:47:54;15.90;;;9.15;;
22314;SDS011;11325;55.686;37.566;2023-07-08T06:50:23;16.23;;;9.35;;
22314;SDS011;11325;55.686;37.566;2023-07-08T06:52:51;15.28;;;9.00;;
22314;SDS011;11325;55.686;37.566;2023-07-08T06:55:20;15.48;;;9.08;;
22314;SDS011;11325;55.686;37.566;2023-07-08T06:57:58;17.37;;;8.75;;
22314;SDS011;11325;55.686;37.566;2023-07-08T07:00:37;23.20;;;9.73;;
22314;SDS011;11325;55.686;37.566;2023-07-08T07:03:36;17.55;;;9.30;;
22314;SDS011;11325;55.686;37.566;2023-07-08T07:06:05;18.65;;;10.18;;
22314;SDS011;11325;55.686;37.566;2023-07-08T07:08:43;19.05;;;10.43;;
22314;SDS011;11325;55.686;37.566;2023-07-08T07:11:12;18.15;;;10.25;;
22314;SDS011;11325;55.686;37.566;2023-07-08T07:13:50;16.75;;;10.48;;
22314;SDS011;11325;55.686;37.566;2023-07-08T07:16:19;20.15;;;11.43;;
22314;SDS011;11325;55.686;37.566;2023-07-08T07:18:58;13.38;;;9.55;;
22314;SDS011;11325;55.686;37.566;2023-07-08T07:21:36;14.20;;;10.05;;
22314;SDS011;11325;55.686;37.566;2023-07-08T07:24:05;17.75;;;10.55;;
22314;SDS011;11325;55.686;37.566;2023-07-08T07:26:34;15.32;;;10.25;;
22314;SDS011;11325;55.686;37.566;2023-07-08T07:29:04;14.85;;;10.40;;
22314;SDS011;11325;55.686;37.566;2023-07-08T07:31:49;13.72;;;10.00;;
22314;SDS011;11325;55.686;37.566;2023-07-08T07:34:19;18.65;;;10.50;;
22314;SDS011;11325;55.686;37.566;2023-07-08T07:36:47;16.10;;;9.48;;
22314;SDS011;11325;55.686;37.566;2023-07-08T07:39:16;19.20;;;9.55;;
22314;SDS011;11325;55.686;37.566;2023-07-08T07:41:55;13.00;;;9.50;;
22314;SDS011;11325;55.686;37.566;2023-07-08T07:44:23;17.45;;;10.00;;
22314;SDS011;11325;55.686;37.566;2023-07-08T07:46:52;15.55;;;9.35;;
22314;SDS011;11325;55.686;37.566;2023-07-08T07:49:21;17.20;;;10.00;;
22314;SDS011;11325;55.686;37.566;2023-07-08T07:52:01;19.57;;;9.98;;
22314;SDS011;11325;55.686;37.566;2023-07-08T07:54:29;27.62;;;10.88;;
22314;SDS011;11325;55.686;37.566;2023-07-08T07:56:58;17.23;;;10.15;;
22314;SDS011;11325;55.686;37.566;2023-07-08T07:59:26;17.23;;;9.50;;
22314;SDS011;11325;55.686;37.566;2023-07-08T08:02:05;20.88;;;8.93;;
22314;SDS011;11325;55.686;37.566;2023-07-08T08:04:44;19.00;;;8.95;;
22314;SDS011;11325;55.686;37.566;2023-07-08T08:07:23;19.98;;;9.40;;
22314;SDS011;11325;55.686;37.566;2023-07-08T08:10:03;16.65;;;8.88;;
22314;SDS011;11325;55.686;37.566;2023-07-08T08:12:32;19.70;;;10.00;;
22314;SDS011;11325;55.686;37.566;2023-07-08T08:15:00;17.30;;;10.38;;
22314;SDS011;11325;55.686;37.566;2023-07-08T08:17:30;15.15;;;9.30;;
22314;SDS011;11325;55.686;37.566;2023-07-08T08:19:59;14.23;;;9.20;;
22314;SDS011;11325;55.686;37.566;2023-07-08T08:22:29;12.85;;;8.50;;
22314;SDS011;11325;55.686;37.566;2023-07-08T08:24:58;16.57;;;9.53;;
22314;SDS011;11325;55.686;37.566;2023-07-08T08:27:26;19.30;;;9.35;;
22314;SDS011;11325;55.686;37.566;2023-07-08T08:30:05;17.45;;;10.30;;
22314;SDS011;11325;55.686;37.566;2023-07-08T08:32:44;12.45;;;9.30;;
22314;SDS011;11325;55.686;37.566;2023-07-08T08:35:12;16.82;;;10.45;;
22314;SDS011;11325;55.686;37.566;2023-07-08T08:37:41;17.52;;;9.43;;
22314;SDS011;11325;55.686;37.566;2023-07-08T08:40:21;12.85;;;9.08;;
22314;SDS011;11325;55.686;37.566;2023-07-08T08:43:00;15.50;;;9.48;;
22314;SDS011;11325;55.686;37.566;2023-07-08T08:48:24;15.03;;;10.32;;
22314;SDS011;11325;55.686;37.566;2023-07-08T08:50:57;14.98;;;8.68;;
22314;SDS011;11325;55.686;37.566;2023-07-08T08:53:27;14.15;;;9.18;;
22314;SDS011;11325;55.686;37.566;2023-07-08T08:56:18;17.90;;;9.28;;
22314;SDS011;11325;55.686;37.566;2023-07-08T09:01:26;15.50;;;9.83;;
22314;SDS011;11325;55.686;37.566;2023-07-08T09:06:50;18.17;;;10.10;;
22314;SDS011;11325;55.686;37.566;2023-07-08T09:14:25;11.12;;;8.63;;
22314;SDS011;11325;55.686;37.566;2023-07-08T09:19:42;14.55;;;8.93;;
22314;SDS011;11325;55.686;37.566;2023-07-08T09:22:13;14.65;;;8.65;;
22314;SDS011;11325;55.686;37.566;2023-07-08T09:24:51;15.18;;;9.05;;
22314;SDS011;11325;55.686;37.566;2023-07-08T09:27:19;13.98;;;9.58;;
22314;SDS011;11325;55.686;37.566;2023-07-08T09:29:59;15.28;;;9.20;;
22314;SDS011;11325;55.686;37.566;2023-07-08T09:32:29;10.48;;;7.85;;
22314;SDS011;11325;55.686;37.566;2023-07-08T09:35:19;11.20;;;7.90;;
22314;SDS011;11325;55.686;37.566;2023-07-08T09:37:39;13.90;;;8.50;;
22314;SDS011;11325;55.686;37.566;2023-07-08T09:42:50;13.70;;;8.15;;
22314;SDS011;11325;55.686;37.566;2023-07-08T09:45:29;13.03;;;8.20;;
22314;SDS011;11325;55.686;37.566;2023-07-08T09:48:01;13.35;;;8.33;;
22314;SDS011;11325;55.686;37.566;2023-07-08T09:50:40;10.72;;;8.35;;
22314;SDS011;11325;55.686;37.566;2023-07-08T09:53:19;17.02;;;8.90;;
22314;SDS011;11325;55.686;37.566;2023-07-08T09:55:49;18.07;;;8.40;;
22314;SDS011;11325;55.686;37.566;2023-07-08T09:58:25;16.93;;;8.95;;
22314;SDS011;11325;55.686;37.566;2023-07-08T10:01:11;12.45;;;9.73;;
22314;SDS011;11325;55.686;37.566;2023-07-08T10:03:51;15.90;;;9.63;;
22314;SDS011;11325;55.686;37.566;2023-07-08T10:06:49;9.55;;;7.10;;
22314;SDS011;11325;55.686;37.566;2023-07-08T10:09:30;15.68;;;11.30;;
22314;SDS011;11325;55.686;37.566;2023-07-08T10:14:41;10.93;;;7.80;;
22314;SDS011;11325;55.686;37.566;2023-07-08T10:17:20;17.30;;;7.95;;
22314;SDS011;11325;55.686;37.566;2023-07-08T10:19:59;10.58;;;7.58;;
22314;SDS011;11325;55.686;37.566;2023-07-08T10:36:21;10.25;;;6.22;;
22314;SDS011;11325;55.686;37.566;2023-07-08T10:39:05;8.53;;;6.67;;
22314;SDS011;11325;55.686;37.566;2023-07-08T10:44:26;9.20;;;6.35;;
22314;SDS011;11325;55.686;37.566;2023-07-08T10:47:04;13.62;;;6.15;;
22314;SDS011;11325;55.686;37.566;2023-07-08T10:50:01;9.23;;;5.17;;
22314;SDS011;11325;55.686;37.566;2023-07-08T11:03:48;11.40;;;5.28;;
22314;SDS011;11325;55.686;37.566;2023-07-08T11:09:02;8.80;;;4.75;;
22314;SDS011;11325;55.686;37.566;2023-07-08T11:14:41;10.28;;;4.87;;
22314;SDS011;11325;55.686;37.566;2023-07-08T11:17:19;6.97;;;4.50;;
22314;SDS011;11325;55.686;37.566;2023-07-08T11:22:26;8.13;;;3.87;;
22314;SDS011;11325;55.686;37.566;2023-07-08T11:24:56;9.58;;;3.95;;
22314;SDS011;11325;55.686;37.566;2023-07-08T11:27:28;7.80;;;3.80;;
22314;SDS011;11325;55.686;37.566;2023-07-08T11:32:47;4.80;;;3.77;;
22314;SDS011;11325;55.686;37.566;2023-07-08T11:38:06;7.30;;;3.70;;
22314;SDS011;11325;55.686;37.566;2023-07-08T11:40:38;8.38;;;4.62;;
22314;SDS011;11325;55.686;37.566;2023-07-08T11:43:05;10.55;;;4.30;;
22314;SDS011;11325;55.686;37.566;2023-07-08T11:45:35;6.50;;;4.12;;
22314;SDS011;11325;55.686;37.566;2023-07-08T11:50:50;7.80;;;4.65;;
22314;SDS011;11325;55.686;37.566;2023-07-08T11:56:03;5.22;;;3.47;;
22314;SDS011;11325;55.686;37.566;2023-07-08T12:09:45;10.03;;;3.00;;
22314;SDS011;11325;55.686;37.566;2023-07-08T12:12:21;6.12;;;3.37;;
22314;SDS011;11325;55.686;37.566;2023-07-08T12:15:04;6.90;;;3.87;;
22314;SDS011;11325;55.686;37.566;2023-07-08T12:17:30;12.53;;;3.75;;
22314;SDS011;11325;55.686;37.566;2023-07-08T12:23:02;9.03;;;3.60;;
22314;SDS011;11325;55.686;37.566;2023-07-08T12:25:31;8.60;;;3.17;;
22314;SDS011;11325;55.686;37.566;2023-07-08T12:28:01;4.87;;;3.15;;
22314;SDS011;11325;55.686;37.566;2023-07-08T12:30:31;8.85;;;2.40;;
22314;SDS011;11325;55.686;37.566;2023-07-08T12:33:01;4.45;;;3.12;;
22314;SDS011;11325;55.686;37.566;2023-07-08T12:35:33;9.48;;;2.80;;
22314;SDS011;11325;55.686;37.566;2023-07-08T12:38:32;5.12;;;3.30;;
22314;SDS011;11325;55.686;37.566;2023-07-08T12:41:05;8.83;;;3.60;;
22314;SDS011;11325;55.686;37.566;2023-07-08T12:43:31;4.87;;;3.37;;
22314;SDS011;11325;55.686;37.566;2023-07-08T12:46:12;15.65;;;3.80;;
22314;SDS011;11325;55.686;37.566;2023-07-08T12:48:41;5.53;;;3.35;;
22314;SDS011;11325;55.686;37.566;2023-07-08T12:51:12;8.45;;;3.62;;
22314;SDS011;11325;55.686;37.566;2023-07-08T12:53:41;6.78;;;3.47;;
22314;SDS011;11325;55.686;37.566;2023-07-08T12:56:11;7.05;;;3.52;;
22314;SDS011;11325;55.686;37.566;2023-07-08T12:58:41;6.62;;;3.30;;
22314;SDS011;11325;55.686;37.566;2023-07-08T13:01:13;5.50;;;3.42;;
22314;SDS011;11325;55.686;37.566;2023-07-08T13:03:52;5.53;;;3.08;;
22314;SDS011;11325;55.686;37.566;2023-07-08T13:06:21;6.37;;;3.72;;
22314;SDS011;11325;55.686;37.566;2023-07-08T13:09:06;10.15;;;3.20;;
22314;SDS011;11325;55.686;37.566;2023-07-08T13:11:32;6.55;;;3.47;;
22314;SDS011;11325;55.686;37.566;2023-07-08T13:14:01;7.20;;;3.83;;
22314;SDS011;11325;55.686;37.566;2023-07-08T13:16:31;5.70;;;3.72;;
22314;SDS011;11325;55.686;37.566;2023-07-08T13:19:01;9.33;;;7.12;;
22314;SDS011;11325;55.686;37.566;2023-07-08T13:21:46;8.68;;;3.70;;
22314;SDS011;11325;55.686;37.566;2023-07-08T13:24:16;9.13;;;3.83;;
22314;SDS011;11325;55.686;37.566;2023-07-08T13:26:58;6.60;;;3.92;;
22314;SDS011;11325;55.686;37.566;2023-07-08T13:29:26;4.55;;;3.37;;
22314;SDS011;11325;55.686;37.566;2023-07-08T13:32:09;6.22;;;3.65;;
22314;SDS011;11325;55.686;37.566;2023-07-08T13:34:38;10.23;;;3.60;;
22314;SDS011;11325;55.686;37.566;2023-07-08T13:37:19;11.38;;;4.08;;
22314;SDS011;11325;55.686;37.566;2023-07-08T13:39:49;6.42;;;3.50;;
22314;SDS011;11325;55.686;37.566;2023-07-08T13:42:17;8.23;;;3.22;;
22314;SDS011;11325;55.686;37.566;2023-07-08T13:44:46;6.75;;;3.80;;
22314;SDS011;11325;55.686;37.566;2023-07-08T13:50:07;4.83;;;3.45;;
22314;SDS011;11325;55.686;37.566;2023-07-08T13:52:35;4.33;;;3.60;;
22314;SDS011;11325;55.686;37.566;2023-07-08T13:55:20;8.45;;;3.35;;
22314;SDS011;11325;55.686;37.566;2023-07-08T13:57:58;7.08;;;3.27;;
22314;SDS011;11325;55.686;37.566;2023-07-08T14:00:29;4.72;;;3.20;;
22314;SDS011;11325;55.686;37.566;2023-07-08T14:03:12;4.33;;;3.40;;
22314;SDS011;11325;55.686;37.566;2023-07-08T14:05:43;7.85;;;3.35;;
22314;SDS011;11325;55.686;37.566;2023-07-08T14:10:52;5.03;;;3.25;;
22314;SDS011;11325;55.686;37.566;2023-07-08T14:13:20;4.83;;;3.20;;
22314;SDS011;11325;55.686;37.566;2023-07-08T14:15:49;7.17;;;2.95;;
22314;SDS011;11325;55.686;37.566;2023-07-08T14:18:18;8.95;;;3.40;;
22314;SDS011;11325;55.686;37.566;2023-07-08T14:20:46;6.03;;;3.65;;
22314;SDS011;11325;55.686;37.566;2023-07-08T14:23:25;6.30;;;3.30;;
22314;SDS011;11325;55.686;37.566;2023-07-08T14:26:07;7.53;;;3.50;;
22314;SDS011;11325;55.686;37.566;2023-07-08T14:28:33;5.45;;;3.05;;
22314;SDS011;11325;55.686;37.566;2023-07-08T14:31:02;11.80;;;4.08;;
22314;SDS011;11325;55.686;37.566;2023-07-08T14:33:31;7.05;;;3.67;;
22314;SDS011;11325;55.686;37.566;2023-07-08T14:36:00;4.72;;;3.10;;
22314;SDS011;11325;55.686;37.566;2023-07-08T14:38:28;5.72;;;3.33;;
22314;SDS011;11325;55.686;37.566;2023-07-08T14:40:57;4.37;;;2.72;;
22314;SDS011;11325;55.686;37.566;2023-07-08T14:43:28;3.40;;;3.00;;
22314;SDS011;11325;55.686;37.566;2023-07-08T14:48:38;4.70;;;3.22;;
22314;SDS011;11325;55.686;37.566;2023-07-08T14:51:18;3.83;;;2.85;;
22314;SDS011;11325;55.686;37.566;2023-07-08T14:53:57;13.72;;;6.70;;
22314;SDS011;11325;55.686;37.566;2023-07-08T14:56:42;6.17;;;3.20;;
22314;SDS011;11325;55.686;37.566;2023-07-08T14:59:12;8.30;;;2.52;;
22314;SDS011;11325;55.686;37.566;2023-07-08T15:01:40;3.37;;;2.95;;
22314;SDS011;11325;55.686;37.566;2023-07-08T15:06:50;12.10;;;3.20;;
22314;SDS011;11325;55.686;37.566;2023-07-08T15:09:28;12.55;;;3.08;;
22314;SDS011;11325;55.686;37.566;2023-07-08T15:11:57;6.90;;;2.87;;
22314;SDS011;11325;55.686;37.566;2023-07-08T15:14:26;7.45;;;3.08;;
22314;SDS011;11325;55.686;37.566;2023-07-08T15:16:55;5.00;;;3.00;;
22314;SDS011;11325;55.686;37.566;2023-07-08T15:19:34;5.25;;;2.75;;
22314;SDS011;11325;55.686;37.566;2023-07-08T15:22:04;6.08;;;2.60;;
22314;SDS011;11325;55.686;37.566;2023-07-08T15:24:44;4.10;;;2.65;;
22314;SDS011;11325;55.686;37.566;2023-07-08T15:27:12;11.05;;;3.05;;
22314;SDS011;11325;55.686;37.566;2023-07-08T15:29:41;4.70;;;2.80;;
22314;SDS011;11325;55.686;37.566;2023-07-08T15:32:13;6.25;;;2.80;;
22314;SDS011;11325;55.686;37.566;2023-07-08T15:34:43;11.33;;;2.80;;
22314;SDS011;11325;55.686;37.566;2023-07-08T15:37:12;10.65;;;2.87;;
22314;SDS011;11325;55.686;37.566;2023-07-08T15:39:41;7.50;;;3.00;;
22314;SDS011;11325;55.686;37.566;2023-07-08T15:42:10;3.55;;;2.62;;
22314;SDS011;11325;55.686;37.566;2023-07-08T15:44:50;7.00;;;3.10;;
22314;SDS011;11325;55.686;37.566;2023-07-08T15:47:19;6.97;;;3.00;;
22314;SDS011;11325;55.686;37.566;2023-07-08T15:49:48;13.90;;;3.02;;
22314;SDS011;11325;55.686;37.566;2023-07-08T15:52:27;10.23;;;2.75;;
22314;SDS011;11325;55.686;37.566;2023-07-08T15:55:06;4.90;;;3.20;;
22314;SDS011;11325;55.686;37.566;2023-07-08T15:57:46;6.40;;;2.95;;
22314;SDS011;11325;55.686;37.566;2023-07-08T16:00:18;7.67;;;3.20;;
22314;SDS011;11325;55.686;37.566;2023-07-08T16:02:50;5.95;;;2.65;;
22314;SDS011;11325;55.686;37.566;2023-07-08T16:05:18;6.08;;;2.85;;
22314;SDS011;11325;55.686;37.566;2023-07-08T16:07:59;5.62;;;3.27;;
22314;SDS011;11325;55.686;37.566;2023-07-08T16:10:38;8.23;;;3.10;;
22314;SDS011;11325;55.686;37.566;2023-07-08T16:13:08;6.75;;;2.70;;
22314;SDS011;11325;55.686;37.566;2023-07-08T16:15:36;10.60;;;3.12;;
22314;SDS011;11325;55.686;37.566;2023-07-08T16:18:08;7.08;;;3.42;;
22314;SDS011;11325;55.686;37.566;2023-07-08T16:20:46;16.67;;;3.15;;
22314;SDS011;11325;55.686;37.566;2023-07-08T16:23:24;4.35;;;2.95;;
22314;SDS011;11325;55.686;37.566;2023-07-08T16:26:03;3.83;;;2.67;;
22314;SDS011;11325;55.686;37.566;2023-07-08T16:28:43;4.03;;;2.52;;